Time;durP1;ratioP1;P1;durP2;ratioP2;P2;SDS_P1;SDS_P2;PMS_P1;PMS_P2;Temp;Humidity;BMP_temperature;BMP_pressure;BME280_temperature;BME280_humidity;BME280_pressure;Samples;Min_cycle;Max_cycle;Signal;HPM_P1;HPM_P2
2021/03/21 00:01:50;;;;;;;9.40;8.57;;;2.00;99.90;;;;;;5016486;28;20277;-72
2021/03/21 00:04:16;;;;;;;9.30;7.30;;;1.90;99.90;;;;;;5005542;28;20211;-72
2021/03/21 00:06:43;;;;;;;8.93;7.47;;;1.90;99.90;;;;;;5016398;28;20256;-72
2021/03/21 00:09:10;;;;;;;8.40;6.80;;;1.90;99.90;;;;;;5025452;28;20190;-72
2021/03/21 00:11:36;;;;;;;8.07;7.37;;;1.90;99.90;;;;;;5032081;28;20199;-72
2021/03/21 00:14:03;;;;;;;7.10;6.40;;;1.90;99.90;;;;;;5033537;28;20188;-72
2021/03/21 00:16:29;;;;;;;9.20;6.53;;;1.90;99.90;;;;;;5028744;28;20185;-72
2021/03/21 00:18:55;;;;;;;9.23;6.73;;;1.90;99.90;;;;;;5037099;28;20174;-72
2021/03/21 00:21:21;;;;;;;9.03;7.33;;;1.90;99.90;;;;;;5036741;28;20747;-72
2021/03/21 00:23:47;;;;;;;8.00;7.20;;;1.10;99.90;;;;;;5036570;28;20203;-72
2021/03/21 00:26:13;;;;;;;8.53;7.40;;;1.90;99.90;;;;;;5035161;28;20228;-71
2021/03/21 00:28:40;;;;;;;9.10;7.67;;;1.90;99.90;;;;;;5035614;28;20188;-72
2021/03/21 00:33:42;;;;;;;9.67;8.67;;;1.90;99.90;;;;;;5002037;28;20254;-73
2021/03/21 00:36:10;;;;;;;9.30;8.30;;;1.90;99.90;;;;;;4997017;28;20180;-74
2021/03/21 00:38:39;;;;;;;10.13;9.07;;;1.80;99.90;;;;;;4997005;28;20646;-74
2021/03/21 00:41:16;;;;;;;11.30;8.40;;;1.90;99.90;;;;;;4996975;28;20169;-73
2021/03/21 00:43:42;;;;;;;9.20;7.83;;;1.90;99.90;;;;;;4956898;29;20203;-74
2021/03/21 00:46:09;;;;;;;9.83;8.07;;;1.90;99.90;;;;;;4973896;28;20184;-74
2021/03/21 00:48:39;;;;;;;9.53;7.87;;;1.90;99.90;;;;;;4977447;28;20176;-74
2021/03/21 00:51:06;;;;;;;9.30;8.10;;;1.90;99.90;;;;;;4977998;28;20238;-74
2021/03/21 00:53:32;;;;;;;8.93;8.00;;;1.90;99.90;;;;;;4956976;29;20517;-74
2021/03/21 00:55:58;;;;;;;8.90;8.00;;;1.90;99.90;;;;;;4970740;28;20172;-74
2021/03/21 00:58:24;;;;;;;10.50;8.27;;;1.90;99.90;;;;;;4976816;28;20176;-75
2021/03/21 01:00:57;;;;;;;10.03;8.27;;;1.90;99.90;;;;;;4977031;28;20172;-74
2021/03/21 01:03:27;;;;;;;9.93;8.80;;;1.90;99.90;;;;;;4956262;28;20201;-72
2021/03/21 01:05:59;;;;;;;10.47;8.30;;;1.90;99.90;;;;;;4950946;28;20173;-74
2021/03/21 01:08:32;;;;;;;9.93;8.67;;;2.00;99.90;;;;;;4977177;28;20169;-72
2021/03/21 01:11:19;;;;;;;12.53;9.27;;;2.00;99.90;;;;;;4992024;28;20265;-74
2021/03/21 01:13:45;;;;;;;10.20;9.20;;;2.00;99.90;;;;;;4976446;28;20192;-75
2021/03/21 01:16:27;;;;;;;10.37;9.27;;;2.00;99.90;;;;;;4976368;28;20191;-74
2021/03/21 01:18:54;;;;;;;11.73;9.73;;;2.00;99.90;;;;;;4977331;28;20559;-74
2021/03/21 01:21:23;;;;;;;10.77;9.10;;;2.00;99.90;;;;;;4977310;28;20177;-74
2021/03/21 01:23:49;;;;;;;11.27;10.17;;;2.00;99.90;;;;;;4976618;28;20228;-74
2021/03/21 01:26:19;;;;;;;10.17;8.27;;;2.00;99.90;;;;;;4974658;28;20191;-74
2021/03/21 01:28:46;;;;;;;9.97;8.50;;;1.90;99.90;;;;;;4982825;28;20175;-73
2021/03/21 01:31:15;;;;;;;8.43;7.57;;;1.90;99.90;;;;;;4976441;28;20180;-74
2021/03/21 01:33:42;;;;;;;8.63;7.73;;;1.90;99.90;;;;;;4959120;28;20192;-74
2021/03/21 01:36:31;;;;;;;8.33;7.50;;;1.80;99.90;;;;;;4974739;28;20180;-74
2021/03/21 01:38:58;;;;;;;10.13;7.80;;;1.80;99.90;;;;;;4975276;28;20532;-74
2021/03/21 01:41:28;;;;;;;9.50;8.37;;;1.80;99.90;;;;;;4976603;28;20185;-74
2021/03/21 01:43:55;;;;;;;9.40;7.37;;;1.80;99.90;;;;;;4976355;28;20201;-74
2021/03/21 01:46:40;;;;;;;9.43;8.33;;;1.80;99.90;;;;;;4955804;29;20177;-74
2021/03/21 01:49:23;;;;;;;9.63;7.77;;;1.70;99.90;;;;;;4968755;28;20239;-74
2021/03/21 01:51:50;;;;;;;10.73;8.53;;;1.80;99.90;;;;;;4976059;28;20239;-74
2021/03/21 01:54:19;;;;;;;8.73;7.83;;;1.80;99.90;;;;;;4976408;28;20180;-74
2021/03/21 01:56:45;;;;;;;9.03;8.23;;;1.80;99.90;;;;;;4976128;28;20176;-74
2021/03/21 01:59:17;;;;;;;8.90;7.63;;;1.80;99.90;;;;;;4976073;28;20176;-74
2021/03/21 02:01:43;;;;;;;9.63;8.20;;;1.80;99.90;;;;;;4975824;28;20224;-74
2021/03/21 02:04:09;;;;;;;9.30;8.40;;;1.80;99.90;;;;;;4975997;28;20231;-74
2021/03/21 02:06:35;;;;;;;11.97;8.10;;;1.80;99.90;;;;;;4976055;28;20213;-74
2021/03/21 02:09:32;;;;;;;11.77;8.57;;;1.80;99.90;;;;;;4976232;28;20212;-74
2021/03/21 02:12:19;;;;;;;9.40;8.40;;;1.80;99.90;;;;;;4975779;28;20626;-74
2021/03/21 02:14:53;;;;;;;10.97;8.50;;;1.80;99.90;;;;;;4975827;28;20172;-74
2021/03/21 02:17:39;;;;;;;11.60;8.63;;;1.80;99.90;;;;;;4990855;28;20183;-74
2021/03/21 02:20:30;;;;;;;9.57;8.57;;;1.80;99.90;;;;;;4958219;28;20659;-72
2021/03/21 02:23:11;;;;;;;9.17;8.13;;;1.80;99.90;;;;;;4975927;28;20200;-74
2021/03/21 02:26:18;;;;;;;13.93;7.73;;;1.80;99.90;;;;;;4990549;28;20282;-73
2021/03/21 02:29:29;;;;;;;9.30;7.83;;;1.80;99.90;;;;;;4956141;28;20189;-74
2021/03/21 02:32:21;;;;;;;9.90;7.93;;;1.80;99.90;;;;;;4959847;28;20695;-74
2021/03/21 02:34:56;;;;;;;8.40;7.47;;;1.80;99.90;;;;;;4971837;28;20188;-74
2021/03/21 02:37:26;;;;;;;9.23;8.00;;;2.40;99.90;;;;;;4973534;28;20211;-74
2021/03/21 02:40:04;;;;;;;8.90;7.23;;;1.70;99.90;;;;;;4972064;28;20176;-74
2021/03/21 02:42:36;;;;;;;9.30;8.40;;;1.70;99.90;;;;;;4973753;28;20601;-74
2021/03/21 02:45:08;;;;;;;9.77;7.63;;;1.60;99.90;;;;;;4975044;28;20192;-74
2021/03/21 02:47:36;;;;;;;11.27;8.20;;;1.60;99.90;;;;;;4975469;28;20203;-74
2021/03/21 02:50:14;;;;;;;8.87;7.97;;;1.60;99.90;;;;;;4973665;28;20172;-74
2021/03/21 02:52:56;;;;;;;9.73;7.63;;;1.60;99.90;;;;;;4974672;28;20670;-74
2021/03/21 02:55:37;;;;;;;9.13;7.97;;;1.60;99.90;;;;;;4975338;28;20176;-74
2021/03/21 02:58:23;;;;;;;7.20;6.57;;;1.50;99.90;;;;;;4975322;28;20184;-74
2021/03/21 03:01:19;;;;;;;9.87;7.47;;;1.60;99.90;;;;;;4976219;28;20196;-74
2021/03/21 03:03:47;;;;;;;8.00;7.20;;;1.50;99.90;;;;;;4974910;28;20192;-74
2021/03/21 03:06:19;;;;;;;7.83;7.03;;;1.50;99.90;;;;;;4974749;28;20272;-74
2021/03/21 03:08:49;;;;;;;8.00;7.20;;;1.50;99.90;;;;;;4974921;28;20252;-74
2021/03/21 03:11:18;;;;;;;7.97;7.17;;;1.40;99.90;;;;;;4954244;28;20174;-74
2021/03/21 03:14:06;;;;;;;7.97;7.20;;;1.40;99.90;;;;;;4974199;28;20186;-74
2021/03/21 03:17:11;;;;;;;10.70;7.90;;;1.40;99.90;;;;;;4973278;28;20195;-74
2021/03/21 03:19:58;;;;;;;8.93;7.53;;;1.40;99.90;;;;;;4975266;28;20524;-74
2021/03/21 03:23:01;;;;;;;9.40;7.23;;;1.40;99.90;;;;;;4974901;28;20243;-74
2021/03/21 03:25:42;;;;;;;8.20;7.40;;;1.40;99.90;;;;;;4934128;29;20225;-74
2021/03/21 03:28:22;;;;;;;8.63;7.10;;;1.30;99.90;;;;;;4954464;28;20199;-77
2021/03/21 03:31:00;;;;;;;7.37;6.40;;;1.40;99.90;;;;;;4978630;28;20667;-77
2021/03/21 03:33:27;;;;;;;8.60;7.30;;;1.40;99.90;;;;;;4999527;28;20207;-77
2021/03/21 03:35:53;;;;;;;8.10;7.27;;;1.40;99.90;;;;;;4974551;28;20187;-77
2021/03/21 03:38:20;;;;;;;10.30;7.27;;;1.40;99.90;;;;;;4974555;28;20177;-77
2021/03/21 03:40:46;;;;;;;10.53;6.77;;;1.50;99.90;;;;;;4974533;28;20295;-76
2021/03/21 03:43:37;;;;;;;7.53;6.83;;;1.50;99.90;;;;;;4953869;29;20223;-77
2021/03/21 03:46:17;;;;;;;8.13;7.33;;;1.50;99.90;;;;;;4970124;28;20214;-77
2021/03/21 03:49:04;;;;;;;7.70;6.80;;;1.40;99.90;;;;;;4974587;28;20176;-77
2021/03/21 03:51:42;;;;;;;7.90;7.10;;;1.30;99.90;;;;;;4974385;28;20287;-77
2021/03/21 03:54:28;;;;;;;8.60;6.90;;;1.30;99.90;;;;;;4974881;28;20180;-77
2021/03/21 03:56:57;;;;;;;6.93;5.80;;;1.30;99.90;;;;;;4953839;29;20176;-77
2021/03/21 03:59:22;;;;;;;7.33;6.63;;;1.40;99.90;;;;;;4967936;28;20670;-76
2021/03/21 04:01:56;;;;;;;7.23;6.63;;;1.40;99.90;;;;;;4974112;28;20193;-77
2021/03/21 04:04:30;;;;;;;6.97;6.27;;;1.40;99.90;;;;;;4974140;28;20196;-77
2021/03/21 04:07:17;;;;;;;9.17;8.17;;;1.40;99.90;;;;;;4989199;28;20171;-77
2021/03/21 04:09:53;;;;;;;7.73;6.97;;;1.40;99.90;;;;;;4974140;28;20184;-77
2021/03/21 04:13:02;;;;;;;10.37;7.37;;;1.50;99.90;;;;;;4974273;28;20200;-77
2021/03/21 04:15:32;;;;;;;9.80;7.27;;;1.60;99.90;;;;;;4939989;28;20180;-77
2021/03/21 04:18:17;;;;;;;7.50;6.23;;;1.60;99.90;;;;;;4953603;29;20181;-77
2021/03/21 04:20:56;;;;;;;7.83;6.43;;;1.60;99.90;;;;;;4960208;28;20172;-77
2021/03/21 04:23:40;;;;;;;7.10;6.30;;;1.60;99.90;;;;;;4973875;28;20251;-77
2021/03/21 04:26:11;;;;;;;8.23;7.00;;;1.60;99.90;;;;;;4988964;28;20262;-77
2021/03/21 04:28:44;;;;;;;7.20;6.50;;;1.50;99.90;;;;;;4974059;28;20188;-77
2021/03/21 04:31:13;;;;;;;7.73;6.90;;;1.40;99.90;;;;;;4973934;28;20179;-76
2021/03/21 04:33:49;;;;;;;9.00;6.30;;;1.50;99.90;;;;;;4973869;28;20195;-77
2021/03/21 04:36:22;;;;;;;8.27;6.53;;;1.40;99.90;;;;;;4973863;28;20250;-77
2021/03/21 04:39:13;;;;;;;6.37;5.77;;;1.40;99.90;;;;;;4973993;28;20177;-77
2021/03/21 04:41:49;;;;;;;9.47;7.03;;;1.40;99.90;;;;;;4976530;28;20733;-77
2021/03/21 04:44:23;;;;;;;7.40;6.47;;;1.40;99.90;;;;;;4978527;28;20196;-77
2021/03/21 04:46:57;;;;;;;7.57;6.80;;;1.40;99.90;;;;;;4973949;28;20179;-77
2021/03/21 04:49:23;;;;;;;8.07;6.73;;;1.40;99.90;;;;;;4953254;28;20209;-77
2021/03/21 04:51:57;;;;;;;8.33;7.50;;;1.40;99.90;;;;;;4975772;28;20267;-77
2021/03/21 04:54:29;;;;;;;8.07;7.10;;;1.40;99.90;;;;;;4956900;28;20191;-77
2021/03/21 04:57:16;;;;;;;7.37;6.53;;;1.50;99.90;;;;;;4977197;28;20177;-77
2021/03/21 04:59:44;;;;;;;7.50;6.80;;;1.50;99.90;;;;;;4992144;28;20239;-77
2021/03/21 05:02:17;;;;;;;7.87;6.83;;;1.40;99.90;;;;;;4974871;28;20228;-75
2021/03/21 05:04:47;;;;;;;8.63;6.83;;;1.40;99.90;;;;;;4975165;28;20202;-77
2021/03/21 05:07:13;;;;;;;7.77;6.97;;;1.40;99.90;;;;;;4956128;29;20552;-77
2021/03/21 05:09:43;;;;;;;8.27;7.17;;;1.40;99.90;;;;;;4970508;28;20180;-77
2021/03/21 05:12:32;;;;;;;8.10;6.93;;;1.40;99.90;;;;;;4976085;28;20219;-77
2021/03/21 05:15:28;;;;;;;9.43;7.40;;;1.40;99.90;;;;;;4976687;28;20212;-77
2021/03/21 05:18:01;;;;;;;7.07;6.47;;;1.50;99.90;;;;;;4977181;28;20689;-77
2021/03/21 05:20:57;;;;;;;7.77;6.17;;;1.60;99.90;;;;;;4976965;28;20279;-77
2021/03/21 05:23:40;;;;;;;8.10;6.77;;;1.60;99.90;;;;;;4976725;28;20204;-76
2021/03/21 05:26:15;;;;;;;8.20;6.73;;;1.70;99.90;;;;;;4976824;28;20766;-77
2021/03/21 05:29:05;;;;;;;8.33;7.07;;;1.70;99.90;;;;;;4991725;28;20176;-77
2021/03/21 05:31:31;;;;;;;7.33;6.63;;;1.70;99.90;;;;;;4976345;28;20204;-76
2021/03/21 05:33:59;;;;;;;7.73;7.03;;;1.70;99.90;;;;;;4968837;28;20256;-76
2021/03/21 05:36:24;;;;;;;10.97;7.20;;;1.70;99.90;;;;;;4960314;28;20233;-77
2021/03/21 05:38:56;;;;;;;7.87;7.13;;;1.70;99.90;;;;;;4958264;28;20638;-77
2021/03/21 05:41:51;;;;;;;7.30;6.60;;;1.70;99.90;;;;;;4975488;28;20169;-77
2021/03/21 05:44:23;;;;;;;10.43;7.37;;;1.70;99.90;;;;;;4959011;28;20211;-77
2021/03/21 05:47:06;;;;;;;6.97;6.37;;;1.70;99.90;;;;;;4976517;28;20172;-77
2021/03/21 05:49:41;;;;;;;7.77;7.07;;;1.70;99.90;;;;;;4991752;28;20177;-77
2021/03/21 05:52:41;;;;;;;8.20;6.83;;;1.70;99.90;;;;;;4976218;28;20698;-76
2021/03/21 05:55:31;;;;;;;7.90;6.57;;;1.80;99.90;;;;;;4991202;28;20208;-77
2021/03/21 05:58:26;;;;;;;7.93;6.03;;;1.80;99.90;;;;;;4976154;28;20597;-77
2021/03/21 06:01:20;;;;;;;7.00;6.30;;;1.70;99.90;;;;;;4975958;28;20185;-77
2021/03/21 06:04:09;;;;;;;7.07;6.37;;;1.70;99.90;;;;;;4974222;28;20173;-77
2021/03/21 06:06:50;;;;;;;7.57;6.87;;;1.70;99.90;;;;;;4975222;28;20172;-76
2021/03/21 06:09:36;;;;;;;9.37;7.13;;;1.70;99.90;;;;;;4990928;28;20173;-77
2021/03/21 06:12:27;;;;;;;7.90;6.17;;;1.70;99.90;;;;;;4990840;28;20242;-77
2021/03/21 06:15:20;;;;;;;6.87;6.23;;;1.70;99.90;;;;;;4975656;28;20260;-77
2021/03/21 06:17:54;;;;;;;8.30;6.47;;;1.70;99.90;;;;;;4975761;28;20196;-77
2021/03/21 06:20:32;;;;;;;5.80;5.20;;;1.70;99.90;;;;;;4975772;28;20188;-77
2021/03/21 06:23:32;;;;;;;6.50;5.23;;;1.70;99.90;;;;;;4975730;28;20545;-77
2021/03/21 06:26:18;;;;;;;6.83;6.13;;;1.80;99.90;;;;;;4975719;28;20287;-77
2021/03/21 06:29:15;;;;;;;8.83;7.93;;;1.80;99.90;;;;;;4955121;29;20182;-77
2021/03/21 06:34:39;;;;;;;7.77;6.97;;;1.80;99.90;;;;;;4995944;28;20254;-71
2021/03/21 06:37:04;;;;;;;9.20;7.00;;;1.80;99.90;;;;;;4995008;28;20720;-72
2021/03/21 06:39:30;;;;;;;7.80;7.07;;;1.90;99.90;;;;;;5009908;28;20175;-72
2021/03/21 06:42:17;;;;;;;8.70;7.23;;;2.00;99.90;;;;;;4994884;28;20181;-72
2021/03/21 06:45:04;;;;;;;8.47;6.73;;;2.00;99.90;;;;;;4994647;28;20246;-71
2021/03/21 06:47:37;;;;;;;9.63;7.53;;;2.00;99.90;;;;;;4994695;28;20603;-72
2021/03/21 06:50:14;;;;;;;7.80;6.70;;;2.00;99.90;;;;;;4994606;28;20196;-72
2021/03/21 06:52:46;;;;;;;8.90;6.90;;;2.00;99.90;;;;;;4994460;28;20199;-72
2021/03/21 06:55:37;;;;;;;7.00;6.30;;;2.10;99.90;;;;;;4994580;28;20186;-72
2021/03/21 06:58:26;;;;;;;7.73;6.93;;;2.10;99.90;;;;;;4992926;28;20638;-72
2021/03/21 07:01:31;;;;;;;8.80;6.63;;;2.10;99.90;;;;;;4983656;28;20188;-72
2021/03/21 07:04:11;;;;;;;7.47;6.67;;;2.10;99.90;;;;;;4983512;28;20212;-72
2021/03/21 07:06:56;;;;;;;11.00;8.60;;;2.10;99.90;;;;;;4994059;28;20654;-72
2021/03/21 07:10:00;;;;;;;7.53;6.83;;;2.20;99.90;;;;;;4993078;28;20172;-72
2021/03/21 07:13:06;;;;;;;7.57;6.77;;;2.20;99.90;;;;;;4992971;28;20211;-73
2021/03/21 07:15:52;;;;;;;7.73;6.93;;;2.20;99.90;;;;;;4993766;28;20191;-72
2021/03/21 07:18:35;;;;;;;7.70;6.90;;;2.20;99.90;;;;;;4994105;28;20179;-72
2021/03/21 07:21:32;;;;;;;7.30;6.37;;;2.20;99.90;;;;;;4994008;28;20179;-73
2021/03/21 07:24:05;;;;;;;7.50;6.73;;;2.30;99.90;;;;;;4992635;28;20214;-73
2021/03/21 07:27:08;;;;;;;7.70;6.90;;;2.40;99.90;;;;;;5006891;28;20168;-72
2021/03/21 07:29:46;;;;;;;6.43;5.83;;;2.40;99.90;;;;;;4993824;28;20259;-72
2021/03/21 07:32:14;;;;;;;8.23;7.33;;;2.50;99.90;;;;;;4993817;28;20191;-72
2021/03/21 07:35:09;;;;;;;9.13;6.57;;;2.50;99.90;;;;;;4993632;28;20198;-72
2021/03/21 07:38:02;;;;;;;7.30;6.10;;;2.60;99.90;;;;;;4993469;28;20264;-72
2021/03/21 07:40:48;;;;;;;6.17;5.57;;;2.60;99.90;;;;;;4994187;28;20238;-72
2021/03/21 07:43:33;;;;;;;6.23;5.60;;;2.80;99.90;;;;;;4992563;28;20261;-72
2021/03/21 07:46:16;;;;;;;6.00;5.43;;;2.90;99.90;;;;;;4992380;28;20206;-72
2021/03/21 07:48:51;;;;;;;6.50;5.83;;;3.00;99.90;;;;;;4992335;28;20173;-72
2021/03/21 07:51:26;;;;;;;6.97;5.73;;;3.00;99.90;;;;;;4993741;28;20179;-71
2021/03/21 07:54:17;;;;;;;8.30;6.30;;;2.90;99.90;;;;;;4992469;28;20204;-72
2021/03/21 07:56:52;;;;;;;6.63;4.80;;;2.90;99.90;;;;;;4987506;28;20214;-73
2021/03/21 07:59:23;;;;;;;5.53;5.03;;;2.90;99.90;;;;;;4993661;28;20180;-73
2021/03/21 08:01:49;;;;;;;6.27;5.60;;;2.90;99.90;;;;;;4993399;28;20229;-72
2021/03/21 08:04:23;;;;;;;6.70;6.10;;;2.90;99.90;;;;;;4993890;28;20211;-72
2021/03/21 08:07:01;;;;;;;6.90;6.20;;;2.80;99.90;;;;;;4993461;28;20192;-72
2021/03/21 08:09:38;;;;;;;6.83;6.10;;;3.00;99.90;;;;;;4990115;28;20188;-71
2021/03/21 08:12:17;;;;;;;8.30;6.70;;;2.90;99.90;;;;;;4993775;28;20180;-72
2021/03/21 08:14:56;;;;;;;5.80;5.07;;;3.00;99.90;;;;;;4993451;28;20179;-71
2021/03/21 08:17:43;;;;;;;5.80;5.23;;;3.10;99.90;;;;;;4993371;28;20175;-72
2021/03/21 08:20:21;;;;;;;6.07;5.43;;;3.10;99.90;;;;;;4993752;28;20268;-71
2021/03/21 08:22:50;;;;;;;6.17;5.53;;;3.10;99.90;;;;;;4993225;28;20679;-72
2021/03/21 08:25:27;;;;;;;5.90;5.30;;;3.10;99.90;;;;;;4993411;28;20249;-73
2021/03/21 08:27:54;;;;;;;7.10;6.40;;;3.10;99.90;;;;;;4993057;28;20185;-72
2021/03/21 08:30:26;;;;;;;9.47;6.67;;;3.00;99.90;;;;;;4997290;28;20314;-72
2021/03/21 08:32:59;;;;;;;7.27;6.30;;;3.00;99.90;;;;;;4996961;28;20212;-72
2021/03/21 08:35:30;;;;;;;6.70;6.10;;;3.00;99.90;;;;;;4996890;28;20676;-73
2021/03/21 08:38:00;;;;;;;6.83;5.97;;;3.10;99.90;;;;;;4996678;28;20184;-73
2021/03/21 08:40:38;;;;;;;6.47;5.87;;;3.20;99.90;;;;;;4990320;28;20191;-72
2021/03/21 08:43:12;;;;;;;6.73;6.03;;;3.10;99.90;;;;;;4998042;28;20210;-72
2021/03/21 08:45:47;;;;;;;6.67;5.67;;;3.10;99.90;;;;;;4997141;28;20202;-73
2021/03/21 08:48:39;;;;;;;6.20;5.70;;;3.20;99.90;;;;;;4995147;28;20230;-73
2021/03/21 08:51:05;;;;;;;6.67;5.93;;;3.20;99.90;;;;;;4996854;28;20709;-73
2021/03/21 08:53:57;;;;;;;6.33;5.73;;;3.20;99.90;;;;;;4996774;28;20216;-72
2021/03/21 08:56:28;;;;;;;6.93;5.70;;;3.10;99.90;;;;;;4988409;28;20259;-73
2021/03/21 08:59:08;;;;;;;6.50;5.90;;;3.10;99.90;;;;;;4996710;28;20291;-73
2021/03/21 09:01:34;;;;;;;6.77;6.10;;;3.10;99.90;;;;;;4996642;28;20176;-73
2021/03/21 09:04:18;;;;;;;6.50;5.47;;;3.10;99.90;;;;;;4996539;28;20204;-73
2021/03/21 09:06:46;;;;;;;6.63;6.03;;;3.10;99.90;;;;;;4996134;28;20230;-73
2021/03/21 09:09:18;;;;;;;6.43;5.53;;;3.10;99.90;;;;;;4996676;28;20526;-72
2021/03/21 09:11:46;;;;;;;5.70;5.20;;;3.20;99.90;;;;;;4995316;28;20187;-73
2021/03/21 09:14:21;;;;;;;6.43;5.40;;;3.20;99.90;;;;;;4996692;28;20184;-72
2021/03/21 09:16:54;;;;;;;6.07;5.50;;;3.30;99.90;;;;;;4994699;28;20187;-73
2021/03/21 09:19:25;;;;;;;6.13;5.50;;;3.30;99.90;;;;;;4995132;28;20184;-72
2021/03/21 09:21:52;;;;;;;7.13;5.40;;;3.20;99.90;;;;;;4996235;28;20238;-72
2021/03/21 09:24:24;;;;;;;6.00;5.40;;;3.30;99.90;;;;;;4996235;28;20205;-72
2021/03/21 09:26:50;;;;;;;5.93;5.43;;;3.30;99.90;;;;;;4995853;28;20239;-72
2021/03/21 09:29:19;;;;;;;6.43;5.80;;;3.30;99.90;;;;;;4998855;28;20172;-72
2021/03/21 09:31:48;;;;;;;6.30;5.73;;;3.40;99.90;;;;;;4996440;28;20185;-72
2021/03/21 09:34:31;;;;;;;5.50;5.00;;;3.40;99.90;;;;;;4996055;28;20223;-73
2021/03/21 09:37:06;;;;;;;6.93;5.10;;;3.40;99.90;;;;;;4998945;28;20175;-74
2021/03/21 09:39:34;;;;;;;6.53;5.30;;;3.40;99.90;;;;;;5002824;28;20225;-73
2021/03/21 09:42:04;;;;;;;6.27;5.70;;;3.40;99.90;;;;;;5001348;28;20683;-72
2021/03/21 09:44:34;;;;;;;5.63;5.13;;;3.40;99.90;;;;;;4997121;28;20203;-72
2021/03/21 09:47:27;;;;;;;6.57;5.90;;;3.40;99.90;;;;;;4995858;28;20640;-72
2021/03/21 09:50:29;;;;;;;7.60;5.60;;;3.40;99.90;;;;;;4995793;28;20663;-72
2021/03/21 09:53:05;;;;;;;5.57;5.00;;;3.50;99.90;;;;;;4995947;28;20239;-72
2021/03/21 09:55:49;;;;;;;5.50;5.00;;;3.50;99.90;;;;;;4995879;28;20182;-73
2021/03/21 09:58:40;;;;;;;5.60;4.97;;;3.50;99.90;;;;;;4995253;28;20188;-72
2021/03/21 10:01:19;;;;;;;7.23;5.40;;;3.50;99.90;;;;;;4996051;28;20310;-73
2021/03/21 10:03:49;;;;;;;5.60;5.10;;;3.50;99.90;;;;;;4995316;28;20581;-72
2021/03/21 10:06:24;;;;;;;6.07;5.50;;;3.70;99.90;;;;;;4995221;28;20222;-72
2021/03/21 10:08:57;;;;;;;5.60;5.03;;;3.70;99.90;;;;;;4994216;28;20718;-73
2021/03/21 10:11:36;;;;;;;6.53;5.87;;;3.70;99.90;;;;;;4995277;28;20177;-72
2021/03/21 10:14:21;;;;;;;5.83;5.00;;;3.70;99.90;;;;;;4983979;28;20674;-71
2021/03/21 10:16:47;;;;;;;7.87;5.47;;;3.70;99.90;;;;;;4991201;28;20327;-72
2021/03/21 10:19:38;;;;;;;5.50;4.93;;;3.60;99.90;;;;;;4995363;28;20669;-73
2021/03/21 10:22:26;;;;;;;5.87;5.27;;;3.70;99.90;;;;;;4995113;28;20192;-74
2021/03/21 10:24:54;;;;;;;6.50;5.20;;;3.60;99.90;;;;;;4995068;28;20254;-73
2021/03/21 10:27:24;;;;;;;5.63;5.13;;;3.50;99.90;;;;;;4993364;28;20226;-72
2021/03/21 10:30:01;;;;;;;5.37;4.87;;;3.40;99.90;;;;;;4995242;28;20191;-73
2021/03/21 10:32:30;;;;;;;5.23;4.80;;;3.40;99.90;;;;;;4994755;28;20210;-73
2021/03/21 10:34:57;;;;;;;6.00;5.10;;;3.50;99.90;;;;;;4995076;28;20712;-71
2021/03/21 10:37:41;;;;;;;5.70;5.20;;;3.50;99.90;;;;;;4994446;28;20647;-72
2021/03/21 10:40:25;;;;;;;5.80;5.20;;;3.60;99.90;;;;;;4993641;28;20185;-73
2021/03/21 10:42:51;;;;;;;6.87;5.17;;;3.50;99.90;;;;;;4994588;28;20206;-74
2021/03/21 10:45:36;;;;;;;5.43;4.87;;;3.50;99.90;;;;;;4994647;28;20195;-73
2021/03/21 10:48:14;;;;;;;6.13;5.53;;;3.60;99.90;;;;;;4994073;28;20173;-73
2021/03/21 10:50:45;;;;;;;5.87;5.27;;;3.50;99.90;;;;;;4996782;28;20186;-73
2021/03/21 10:53:26;;;;;;;5.97;5.37;;;3.50;99.90;;;;;;4994441;28;20192;-72
2021/03/21 10:56:20;;;;;;;7.10;5.40;;;3.60;99.90;;;;;;4991495;28;20228;-73
2021/03/21 10:58:46;;;;;;;7.33;5.07;;;3.60;99.90;;;;;;4994871;28;20180;-71
2021/03/21 11:01:20;;;;;;;7.07;5.90;;;3.60;99.90;;;;;;4994723;28;20180;-73
2021/03/21 11:04:01;;;;;;;5.30;4.80;;;3.60;99.90;;;;;;4994726;28;20198;-73
2021/03/21 11:06:29;;;;;;;5.87;5.37;;;3.50;99.90;;;;;;4993975;28;20193;-73
2021/03/21 11:08:55;;;;;;;6.03;5.43;;;3.60;99.90;;;;;;4994416;28;20264;-73
2021/03/21 11:11:21;;;;;;;5.90;5.30;;;3.70;99.90;;;;;;4994560;28;20176;-72
2021/03/21 11:13:48;;;;;;;5.83;4.77;;;3.80;99.90;;;;;;4992327;28;20201;-73
2021/03/21 11:16:17;;;;;;;5.63;5.13;;;3.80;99.90;;;;;;4993913;28;20250;-74
2021/03/21 11:18:53;;;;;;;5.10;4.60;;;3.80;99.90;;;;;;4994167;28;20259;-73
2021/03/21 11:21:24;;;;;;;6.67;4.43;;;3.80;99.90;;;;;;4986373;28;20722;-72
2021/03/21 11:23:53;;;;;;;5.23;4.73;;;3.80;99.90;;;;;;4994063;28;20570;-73
2021/03/21 11:26:31;;;;;;;6.87;4.93;;;3.80;99.90;;;;;;4993726;28;20179;-73
2021/03/21 11:29:05;;;;;;;5.63;4.50;;;3.70;99.90;;;;;;4993960;28;20168;-74
2021/03/21 11:31:43;;;;;;;5.50;5.00;;;3.70;99.90;;;;;;4993996;28;20226;-72
2021/03/21 11:34:16;;;;;;;6.67;5.10;;;3.80;99.90;;;;;;4993802;28;20581;-74
2021/03/21 11:36:41;;;;;;;4.53;4.03;;;3.90;99.90;;;;;;4994636;28;20280;-72
2021/03/21 11:39:31;;;;;;;5.13;4.57;;;3.80;99.90;;;;;;4995169;28;20266;-72
2021/03/21 11:41:57;;;;;;;4.67;4.27;;;3.80;99.90;;;;;;4994104;28;20659;-73
2021/03/21 11:44:29;;;;;;;4.80;4.40;;;3.90;99.90;;;;;;4993893;28;20679;-74
2021/03/21 11:47:09;;;;;;;4.60;4.20;;;3.90;99.90;;;;;;4992355;28;20181;-72
2021/03/21 11:49:35;;;;;;;4.80;4.30;;;4.00;99.90;;;;;;4993839;28;20180;-73
2021/03/21 11:52:03;;;;;;;8.20;4.50;;;4.00;99.90;;;;;;4992458;28;20205;-73
2021/03/21 11:54:32;;;;;;;4.67;4.20;;;4.10;99.90;;;;;;4993708;28;20182;-73
2021/03/21 11:57:13;;;;;;;4.60;4.20;;;4.10;99.90;;;;;;4992120;28;20209;-73
2021/03/21 11:59:44;;;;;;;4.83;4.40;;;4.10;99.90;;;;;;4993729;28;20183;-73
2021/03/21 12:02:38;;;;;;;5.17;4.43;;;4.20;99.90;;;;;;4996476;28;20198;-73
2021/03/21 12:05:11;;;;;;;5.57;4.67;;;4.30;99.90;;;;;;4997597;28;20671;-74
2021/03/21 12:07:38;;;;;;;5.90;4.90;;;4.30;99.90;;;;;;4997661;28;20235;-73
2021/03/21 12:10:05;;;;;;;5.37;4.83;;;4.30;99.90;;;;;;4997645;28;20211;-72
2021/03/21 12:12:43;;;;;;;4.67;4.07;;;4.30;99.90;;;;;;4990790;28;20193;-72
2021/03/21 12:15:24;;;;;;;5.33;4.83;;;4.30;99.90;;;;;;4990919;28;20178;-73
2021/03/21 12:18:01;;;;;;;4.83;4.33;;;4.30;99.90;;;;;;4990921;28;20556;-72
2021/03/21 12:20:37;;;;;;;4.63;4.23;;;4.40;99.90;;;;;;4994287;28;20178;-72
2021/03/21 12:23:03;;;;;;;5.23;4.73;;;4.40;99.90;;;;;;4994079;28;20207;-72
2021/03/21 12:25:32;;;;;;;6.67;4.67;;;4.40;99.90;;;;;;4991262;28;20213;-72
2021/03/21 12:28:16;;;;;;;5.90;4.93;;;4.40;99.90;;;;;;4983714;28;20191;-73
2021/03/21 12:31:09;;;;;;;5.17;4.67;;;4.30;99.90;;;;;;4996897;28;20253;-72
2021/03/21 12:33:37;;;;;;;5.40;4.90;;;4.40;99.90;;;;;;5017923;22;20238;-72
2021/03/21 12:36:03;;;;;;;5.30;4.80;;;4.40;99.90;;;;;;5052495;28;20259;-73
2021/03/21 12:38:42;;;;;;;5.33;4.67;;;4.50;99.90;;;;;;5055133;28;20197;-73
2021/03/21 12:41:34;;;;;;;5.17;4.60;;;4.60;99.90;;;;;;5056380;28;20179;-74
2021/03/21 12:44:21;;;;;;;4.50;4.10;;;4.60;99.90;;;;;;5054971;28;20291;-73
2021/03/21 12:47:00;;;;;;;5.20;4.70;;;4.60;99.90;;;;;;5023951;28;20166;-74
2021/03/21 12:49:38;;;;;;;5.17;4.67;;;4.70;99.90;;;;;;5027987;28;20187;-74
2021/03/21 12:52:21;;;;;;;5.10;4.60;;;4.60;99.90;;;;;;5033554;28;20164;-74
2021/03/21 12:54:48;;;;;;;4.57;3.90;;;4.60;99.90;;;;;;5033077;28;20553;-74
2021/03/21 12:57:14;;;;;;;5.60;4.30;;;4.60;99.90;;;;;;5035520;28;20516;-73
2021/03/21 12:59:46;;;;;;;4.27;3.87;;;4.70;99.90;;;;;;5034298;28;20259;-75
2021/03/21 13:02:25;;;;;;;4.53;4.13;;;4.60;99.90;;;;;;5033529;28;20229;-74
2021/03/21 13:04:52;;;;;;;5.53;4.53;;;4.70;99.90;;;;;;5035993;28;20204;-73
2021/03/21 13:07:19;;;;;;;5.07;4.30;;;4.70;99.90;;;;;;5034703;28;20162;-73
2021/03/21 13:09:45;;;;;;;5.17;4.50;;;4.80;99.90;;;;;;5034599;28;20202;-73
2021/03/21 13:12:12;;;;;;;4.37;3.97;;;4.80;99.90;;;;;;5035148;28;20176;-74
2021/03/21 13:14:38;;;;;;;5.67;4.70;;;4.80;99.90;;;;;;5035740;28;20228;-73
2021/03/21 13:17:04;;;;;;;5.27;4.77;;;4.80;99.90;;;;;;5035757;28;20203;-74
2021/03/21 13:19:30;;;;;;;7.07;5.23;;;4.70;99.90;;;;;;5034496;28;20266;-74
2021/03/21 13:21:56;;;;;;;5.93;4.40;;;4.70;99.90;;;;;;5034402;28;20609;-74
2021/03/21 13:24:22;;;;;;;5.93;4.70;;;4.80;99.90;;;;;;5035661;28;20575;-74
2021/03/21 13:26:48;;;;;;;9.90;6.67;;;5.00;99.90;;;;;;5035501;28;20635;-73
2021/03/21 13:29:14;;;;;;;6.20;4.57;;;4.80;99.90;;;;;;5035801;28;20221;-73
2021/03/21 13:31:39;;;;;;;6.17;5.03;;;4.80;99.90;;;;;;5035606;28;20186;-73
2021/03/21 13:34:06;;;;;;;4.97;4.53;;;4.80;99.90;;;;;;5033864;28;20220;-73
2021/03/21 13:36:31;;;;;;;7.93;5.43;;;4.80;99.90;;;;;;5035000;28;20780;-73
2021/03/21 13:38:57;;;;;;;8.03;6.40;;;5.10;99.90;;;;;;5033178;28;20203;-73
2021/03/21 13:41:23;;;;;;;5.40;4.83;;;4.90;99.90;;;;;;5033758;28;20174;-72
2021/03/21 13:43:48;;;;;;;11.13;7.10;;;4.90;99.90;;;;;;5034335;28;20284;-72
2021/03/21 13:46:14;;;;;;;5.57;4.97;;;5.00;99.90;;;;;;5025387;28;20536;-73
2021/03/21 13:48:40;;;;;;;5.90;5.30;;;5.10;99.90;;;;;;5034817;28;20514;-72